sensor_id;sensor_type;location;lat;lon;timestamp;P1;durP1;ratioP1;P2;durP2;ratioP2
23117;SDS011;11728;50.624;6.014;2023-04-19T00:04:13;8.88;;;6.07;;
23117;SDS011;11728;50.624;6.014;2023-04-19T00:09:34;9.50;;;5.80;;
23117;SDS011;11728;50.624;6.014;2023-04-19T00:14:55;7.07;;;5.45;;
23117;SDS011;11728;50.624;6.014;2023-04-19T00:20:16;8.80;;;4.90;;
23117;SDS011;11728;50.624;6.014;2023-04-19T00:25:36;5.82;;;4.15;;
23117;SDS011;11728;50.624;6.014;2023-04-19T00:30:57;6.50;;;4.68;;
23117;SDS011;11728;50.624;6.014;2023-04-19T00:36:18;7.05;;;3.80;;
23117;SDS011;11728;50.624;6.014;2023-04-19T00:41:39;5.28;;;3.60;;
23117;SDS011;11728;50.624;6.014;2023-04-19T00:46:59;5.57;;;3.60;;
23117;SDS011;11728;50.624;6.014;2023-04-19T00:52:21;5.53;;;3.65;;
23117;SDS011;11728;50.624;6.014;2023-04-19T00:57:42;4.90;;;3.28;;
23117;SDS011;11728;50.624;6.014;2023-04-19T01:03:03;5.78;;;3.75;;
23117;SDS011;11728;50.624;6.014;2023-04-19T01:08:24;5.40;;;3.92;;
23117;SDS011;11728;50.624;6.014;2023-04-19T01:13:45;6.00;;;4.30;;
23117;SDS011;11728;50.624;6.014;2023-04-19T01:19:05;5.75;;;4.00;;
23117;SDS011;11728;50.624;6.014;2023-04-19T01:24:26;7.78;;;4.72;;
23117;SDS011;11728;50.624;6.014;2023-04-19T01:29:47;7.40;;;4.78;;
23117;SDS011;11728;50.624;6.014;2023-04-19T01:35:08;7.72;;;4.80;;
23117;SDS011;11728;50.624;6.014;2023-04-19T01:40:30;7.63;;;5.18;;
23117;SDS011;11728;50.624;6.014;2023-04-19T01:45:51;9.30;;;4.93;;
23117;SDS011;11728;50.624;6.014;2023-04-19T01:51:12;7.43;;;5.05;;
23117;SDS011;11728;50.624;6.014;2023-04-19T01:56:32;8.57;;;5.07;;
23117;SDS011;11728;50.624;6.014;2023-04-19T02:01:53;7.97;;;5.25;;
23117;SDS011;11728;50.624;6.014;2023-04-19T02:07:14;6.50;;;4.72;;
23117;SDS011;11728;50.624;6.014;2023-04-19T02:12:35;7.75;;;5.25;;
23117;SDS011;11728;50.624;6.014;2023-04-19T02:17:55;7.43;;;5.20;;
23117;SDS011;11728;50.624;6.014;2023-04-19T02:23:16;8.13;;;5.50;;
23117;SDS011;11728;50.624;6.014;2023-04-19T02:28:37;8.13;;;5.47;;
23117;SDS011;11728;50.624;6.014;2023-04-19T02:33:58;8.00;;;5.32;;
23117;SDS011;11728;50.624;6.014;2023-04-19T02:39:19;9.52;;;5.40;;
23117;SDS011;11728;50.624;6.014;2023-04-19T02:44:39;7.13;;;4.65;;
23117;SDS011;11728;50.624;6.014;2023-04-19T02:50:00;6.88;;;4.20;;
23117;SDS011;11728;50.624;6.014;2023-04-19T02:55:21;6.75;;;4.60;;
23117;SDS011;11728;50.624;6.014;2023-04-19T03:00:42;6.93;;;4.80;;
23117;SDS011;11728;50.624;6.014;2023-04-19T03:06:02;6.68;;;4.50;;
23117;SDS011;11728;50.624;6.014;2023-04-19T03:11:23;6.43;;;4.53;;
23117;SDS011;11728;50.624;6.014;2023-04-19T03:16:44;7.00;;;4.80;;
23117;SDS011;11728;50.624;6.014;2023-04-19T03:22:05;8.05;;;5.50;;
23117;SDS011;11728;50.624;6.014;2023-04-19T03:27:25;9.35;;;5.75;;
23117;SDS011;11728;50.624;6.014;2023-04-19T03:32:46;9.30;;;6.32;;
23117;SDS011;11728;50.624;6.014;2023-04-19T03:38:07;14.35;;;6.18;;
23117;SDS011;11728;50.624;6.014;2023-04-19T03:43:28;8.90;;;6.53;;
23117;SDS011;11728;50.624;6.014;2023-04-19T03:48:48;11.93;;;7.00;;
23117;SDS011;11728;50.624;6.014;2023-04-19T03:54:10;10.23;;;6.32;;
23117;SDS011;11728;50.624;6.014;2023-04-19T03:59:31;10.23;;;7.35;;
23117;SDS011;11728;50.624;6.014;2023-04-19T04:04:53;11.52;;;7.22;;
23117;SDS011;11728;50.624;6.014;2023-04-19T04:10:14;10.90;;;6.80;;
23117;SDS011;11728;50.624;6.014;2023-04-19T04:15:35;10.57;;;7.28;;
23117;SDS011;11728;50.624;6.014;2023-04-19T04:20:56;10.73;;;7.13;;
23117;SDS011;11728;50.624;6.014;2023-04-19T04:26:17;9.48;;;7.30;;
23117;SDS011;11728;50.624;6.014;2023-04-19T04:31:39;10.02;;;6.80;;
23117;SDS011;11728;50.624;6.014;2023-04-19T04:37:00;12.57;;;9.25;;
23117;SDS011;11728;50.624;6.014;2023-04-19T04:42:21;12.68;;;7.65;;
23117;SDS011;11728;50.624;6.014;2023-04-19T04:47:42;10.57;;;7.10;;
23117;SDS011;11728;50.624;6.014;2023-04-19T04:53:02;10.82;;;7.25;;
23117;SDS011;11728;50.624;6.014;2023-04-19T04:58:23;10.38;;;7.07;;
23117;SDS011;11728;50.624;6.014;2023-04-19T05:03:44;12.77;;;8.85;;
23117;SDS011;11728;50.624;6.014;2023-04-19T05:09:05;18.75;;;9.18;;
23117;SDS011;11728;50.624;6.014;2023-04-19T05:14:26;13.48;;;8.60;;
23117;SDS011;11728;50.624;6.014;2023-04-19T05:19:47;12.43;;;9.20;;
23117;SDS011;11728;50.624;6.014;2023-04-19T05:25:08;16.63;;;10.23;;
23117;SDS011;11728;50.624;6.014;2023-04-19T05:30:30;15.07;;;10.75;;
23117;SDS011;11728;50.624;6.014;2023-04-19T05:35:50;17.70;;;11.18;;
23117;SDS011;11728;50.624;6.014;2023-04-19T05:41:11;16.70;;;11.35;;
23117;SDS011;11728;50.624;6.014;2023-04-19T05:46:32;18.05;;;12.63;;
23117;SDS011;11728;50.624;6.014;2023-04-19T05:51:53;20.23;;;14.82;;
23117;SDS011;11728;50.624;6.014;2023-04-19T05:57:14;21.55;;;15.63;;
23117;SDS011;11728;50.624;6.014;2023-04-19T06:02:35;25.08;;;18.05;;
23117;SDS011;11728;50.624;6.014;2023-04-19T06:07:56;27.70;;;17.55;;
23117;SDS011;11728;50.624;6.014;2023-04-19T06:13:17;26.48;;;17.55;;
23117;SDS011;11728;50.624;6.014;2023-04-19T06:18:38;23.23;;;17.92;;
23117;SDS011;11728;50.624;6.014;2023-04-19T06:23:59;28.95;;;19.15;;
23117;SDS011;11728;50.624;6.014;2023-04-19T06:29:20;24.90;;;18.70;;
23117;SDS011;11728;50.624;6.014;2023-04-19T06:34:41;22.02;;;17.77;;
23117;SDS011;11728;50.624;6.014;2023-04-19T06:40:01;30.63;;;19.08;;
23117;SDS011;11728;50.624;6.014;2023-04-19T06:45:24;22.35;;;17.17;;
23117;SDS011;11728;50.624;6.014;2023-04-19T06:50:45;20.80;;;16.10;;
23117;SDS011;11728;50.624;6.014;2023-04-19T06:56:06;20.85;;;15.48;;
23117;SDS011;11728;50.624;6.014;2023-04-19T07:01:27;17.23;;;13.40;;
23117;SDS011;11728;50.624;6.014;2023-04-19T07:06:48;16.48;;;13.07;;
23117;SDS011;11728;50.624;6.014;2023-04-19T07:12:12;16.60;;;12.63;;
23117;SDS011;11728;50.624;6.014;2023-04-19T07:17:33;17.40;;;10.95;;
23117;SDS011;11728;50.624;6.014;2023-04-19T07:22:55;16.80;;;10.32;;
23117;SDS011;11728;50.624;6.014;2023-04-19T07:28:16;16.05;;;10.57;;
23117;SDS011;11728;50.624;6.014;2023-04-19T07:33:36;15.63;;;9.98;;
23117;SDS011;11728;50.624;6.014;2023-04-19T07:38:57;15.35;;;9.77;;
23117;SDS011;11728;50.624;6.014;2023-04-19T07:44:18;16.90;;;10.13;;
23117;SDS011;11728;50.624;6.014;2023-04-19T07:49:38;12.82;;;9.93;;
23117;SDS011;11728;50.624;6.014;2023-04-19T07:54:59;15.60;;;10.57;;
23117;SDS011;11728;50.624;6.014;2023-04-19T08:00:20;14.90;;;10.80;;
23117;SDS011;11728;50.624;6.014;2023-04-19T08:05:41;17.40;;;11.75;;
23117;SDS011;11728;50.624;6.014;2023-04-19T08:11:02;13.30;;;11.57;;
23117;SDS011;11728;50.624;6.014;2023-04-19T08:16:24;16.65;;;12.48;;
23117;SDS011;11728;50.624;6.014;2023-04-19T08:21:44;16.15;;;12.45;;
23117;SDS011;11728;50.624;6.014;2023-04-19T08:27:05;15.25;;;12.77;;
23117;SDS011;11728;50.624;6.014;2023-04-19T08:32:26;13.90;;;11.73;;
23117;SDS011;11728;50.624;6.014;2023-04-19T08:37:47;16.63;;;12.57;;
23117;SDS011;11728;50.624;6.014;2023-04-19T08:43:08;20.13;;;13.18;;
23117;SDS011;11728;50.624;6.014;2023-04-19T08:48:29;21.70;;;12.63;;
23117;SDS011;11728;50.624;6.014;2023-04-19T08:53:54;17.83;;;12.80;;
23117;SDS011;11728;50.624;6.014;2023-04-19T08:59:16;17.00;;;12.70;;
23117;SDS011;11728;50.624;6.014;2023-04-19T09:04:36;14.23;;;12.20;;
23117;SDS011;11728;50.624;6.014;2023-04-19T09:10:08;22.20;;;13.40;;
23117;SDS011;11728;50.624;6.014;2023-04-19T09:15:38;18.65;;;12.18;;
23117;SDS011;11728;50.624;6.014;2023-04-19T09:21:00;13.10;;;11.45;;
23117;SDS011;11728;50.624;6.014;2023-04-19T09:26:21;14.85;;;10.40;;
23117;SDS011;11728;50.624;6.014;2023-04-19T09:31:42;15.20;;;9.98;;
23117;SDS011;11728;50.624;6.014;2023-04-19T09:37:16;12.68;;;9.60;;
23117;SDS011;11728;50.624;6.014;2023-04-19T09:42:43;12.00;;;9.65;;
23117;SDS011;11728;50.624;6.014;2023-04-19T09:48:06;12.38;;;8.38;;
23117;SDS011;11728;50.624;6.014;2023-04-19T09:53:28;13.60;;;8.90;;
23117;SDS011;11728;50.624;6.014;2023-04-19T09:58:52;12.40;;;7.93;;
23117;SDS011;11728;50.624;6.014;2023-04-19T10:04:13;10.82;;;7.43;;
23117;SDS011;11728;50.624;6.014;2023-04-19T10:09:41;10.07;;;6.82;;
23117;SDS011;11728;50.624;6.014;2023-04-19T10:15:02;12.50;;;7.38;;
23117;SDS011;11728;50.624;6.014;2023-04-19T10:20:32;11.05;;;8.07;;
23117;SDS011;11728;50.624;6.014;2023-04-19T10:25:56;11.13;;;7.53;;
23117;SDS011;11728;50.624;6.014;2023-04-19T10:31:19;14.40;;;8.75;;
23117;SDS011;11728;50.624;6.014;2023-04-19T10:36:43;9.20;;;7.78;;
23117;SDS011;11728;50.624;6.014;2023-04-19T10:42:03;14.90;;;8.75;;
23117;SDS011;11728;50.624;6.014;2023-04-19T10:47:40;10.88;;;9.20;;
23117;SDS011;11728;50.624;6.014;2023-04-19T11:09:50;9.13;;;8.10;;
23117;SDS011;11728;50.624;6.014;2023-04-19T11:15:12;7.80;;;6.95;;
23117;SDS011;11728;50.624;6.014;2023-04-19T11:20:32;14.63;;;6.60;;
23117;SDS011;11728;50.624;6.014;2023-04-19T11:25:54;15.90;;;6.50;;
23117;SDS011;11728;50.624;6.014;2023-04-19T11:31:15;11.57;;;6.03;;
23117;SDS011;11728;50.624;6.014;2023-04-19T11:36:50;9.00;;;6.03;;
23117;SDS011;11728;50.624;6.014;2023-04-19T11:42:18;9.45;;;5.95;;
23117;SDS011;11728;50.624;6.014;2023-04-19T11:47:46;11.27;;;5.90;;
23117;SDS011;11728;50.624;6.014;2023-04-19T11:53:11;12.82;;;5.85;;
23117;SDS011;11728;50.624;6.014;2023-04-19T12:04:04;7.25;;;5.25;;
23117;SDS011;11728;50.624;6.014;2023-04-19T12:09:25;8.48;;;5.00;;
23117;SDS011;11728;50.624;6.014;2023-04-19T12:14:52;13.75;;;5.00;;
23117;SDS011;11728;50.624;6.014;2023-04-19T12:20:26;8.77;;;4.47;;
23117;SDS011;11728;50.624;6.014;2023-04-19T12:25:48;11.80;;;4.95;;
23117;SDS011;11728;50.624;6.014;2023-04-19T12:31:09;9.30;;;4.35;;
23117;SDS011;11728;50.624;6.014;2023-04-19T12:36:30;7.95;;;4.38;;
23117;SDS011;11728;50.624;6.014;2023-04-19T12:41:52;14.23;;;5.50;;
23117;SDS011;11728;50.624;6.014;2023-04-19T12:47:13;15.95;;;5.10;;
23117;SDS011;11728;50.624;6.014;2023-04-19T12:52:34;11.25;;;4.25;;
23117;SDS011;11728;50.624;6.014;2023-04-19T12:57:55;8.98;;;4.72;;
23117;SDS011;11728;50.624;6.014;2023-04-19T13:03:15;14.25;;;5.05;;
23117;SDS011;11728;50.624;6.014;2023-04-19T13:08:36;9.80;;;5.10;;
23117;SDS011;11728;50.624;6.014;2023-04-19T13:13:58;8.50;;;3.85;;
23117;SDS011;11728;50.624;6.014;2023-04-19T13:19:18;8.02;;;4.10;;
23117;SDS011;11728;50.624;6.014;2023-04-19T13:24:39;6.75;;;3.85;;
23117;SDS011;11728;50.624;6.014;2023-04-19T13:30:00;9.93;;;3.75;;
23117;SDS011;11728;50.624;6.014;2023-04-19T13:35:21;9.02;;;3.72;;
23117;SDS011;11728;50.624;6.014;2023-04-19T13:40:43;7.75;;;3.70;;
23117;SDS011;11728;50.624;6.014;2023-04-19T13:46:04;8.27;;;3.60;;
23117;SDS011;11728;50.624;6.014;2023-04-19T13:51:25;5.88;;;3.17;;
23117;SDS011;11728;50.624;6.014;2023-04-19T13:56:46;6.80;;;3.60;;
23117;SDS011;11728;50.624;6.014;2023-04-19T14:02:07;8.82;;;3.67;;
23117;SDS011;11728;50.624;6.014;2023-04-19T14:07:28;7.47;;;3.38;;
23117;SDS011;11728;50.624;6.014;2023-04-19T14:12:50;7.45;;;3.40;;
23117;SDS011;11728;50.624;6.014;2023-04-19T14:18:11;8.38;;;3.47;;
23117;SDS011;11728;50.624;6.014;2023-04-19T14:23:32;11.00;;;3.28;;
23117;SDS011;11728;50.624;6.014;2023-04-19T14:28:53;9.10;;;3.50;;
23117;SDS011;11728;50.624;6.014;2023-04-19T14:34:13;9.05;;;3.90;;
23117;SDS011;11728;50.624;6.014;2023-04-19T14:39:34;7.82;;;3.40;;
23117;SDS011;11728;50.624;6.014;2023-04-19T14:44:56;6.57;;;3.38;;
23117;SDS011;11728;50.624;6.014;2023-04-19T14:50:17;12.68;;;3.63;;
23117;SDS011;11728;50.624;6.014;2023-04-19T14:55:39;9.30;;;4.20;;
23117;SDS011;11728;50.624;6.014;2023-04-19T15:00:59;11.65;;;4.00;;
23117;SDS011;11728;50.624;6.014;2023-04-19T15:06:30;6.78;;;3.40;;
23117;SDS011;11728;50.624;6.014;2023-04-19T15:11:51;8.45;;;3.55;;
23117;SDS011;11728;50.624;6.014;2023-04-19T15:17:11;11.15;;;3.90;;
23117;SDS011;11728;50.624;6.014;2023-04-19T15:22:32;8.75;;;3.38;;
23117;SDS011;11728;50.624;6.014;2023-04-19T15:27:53;9.13;;;3.83;;
23117;SDS011;11728;50.624;6.014;2023-04-19T15:33:14;8.15;;;3.50;;
23117;SDS011;11728;50.624;6.014;2023-04-19T15:38:35;5.45;;;3.30;;
23117;SDS011;11728;50.624;6.014;2023-04-19T15:43:56;8.43;;;3.15;;
23117;SDS011;11728;50.624;6.014;2023-04-19T15:49:17;7.90;;;3.58;;
23117;SDS011;11728;50.624;6.014;2023-04-19T15:54:38;6.88;;;3.92;;
23117;SDS011;11728;50.624;6.014;2023-04-19T15:59:58;12.82;;;4.30;;
23117;SDS011;11728;50.624;6.014;2023-04-19T16:05:19;9.40;;;3.80;;
23117;SDS011;11728;50.624;6.014;2023-04-19T16:10:40;11.27;;;3.50;;
23117;SDS011;11728;50.624;6.014;2023-04-19T16:16:01;8.65;;;3.88;;
23117;SDS011;11728;50.624;6.014;2023-04-19T16:21:21;8.32;;;4.20;;
23117;SDS011;11728;50.624;6.014;2023-04-19T16:26:42;8.75;;;3.78;;
23117;SDS011;11728;50.624;6.014;2023-04-19T16:32:03;16.42;;;4.38;;
23117;SDS011;11728;50.624;6.014;2023-04-19T16:37:25;7.68;;;3.63;;
23117;SDS011;11728;50.624;6.014;2023-04-19T16:42:45;9.50;;;3.45;;
23117;SDS011;11728;50.624;6.014;2023-04-19T16:48:06;5.55;;;3.40;;
23117;SDS011;11728;50.624;6.014;2023-04-19T16:53:29;6.25;;;3.08;;
23117;SDS011;11728;50.624;6.014;2023-04-19T16:58:50;8.63;;;3.33;;
23117;SDS011;11728;50.624;6.014;2023-04-19T17:04:11;9.15;;;3.25;;
23117;SDS011;11728;50.624;6.014;2023-04-19T17:09:32;10.40;;;3.75;;
23117;SDS011;11728;50.624;6.014;2023-04-19T17:14:52;9.68;;;3.33;;
23117;SDS011;11728;50.624;6.014;2023-04-19T17:20:13;8.30;;;3.28;;
23117;SDS011;11728;50.624;6.014;2023-04-19T17:25:34;5.78;;;3.17;;
23117;SDS011;11728;50.624;6.014;2023-04-19T17:30:55;7.07;;;3.25;;
23117;SDS011;11728;50.624;6.014;2023-04-19T17:36:16;8.23;;;3.17;;
23117;SDS011;11728;50.624;6.014;2023-04-19T17:41:37;7.82;;;2.88;;
23117;SDS011;11728;50.624;6.014;2023-04-19T17:47:08;9.82;;;3.03;;
23117;SDS011;11728;50.624;6.014;2023-04-19T17:52:29;4.63;;;2.65;;
23117;SDS011;11728;50.624;6.014;2023-04-19T17:57:50;3.88;;;2.38;;
23117;SDS011;11728;50.624;6.014;2023-04-19T18:03:11;44.78;;;28.55;;
23117;SDS011;11728;50.624;6.014;2023-04-19T18:08:32;8.75;;;4.97;;
23117;SDS011;11728;50.624;6.014;2023-04-19T18:13:52;5.80;;;3.05;;
23117;SDS011;11728;50.624;6.014;2023-04-19T18:19:13;5.45;;;3.47;;
23117;SDS011;11728;50.624;6.014;2023-04-19T18:24:34;7.78;;;3.15;;
23117;SDS011;11728;50.624;6.014;2023-04-19T18:29:55;6.03;;;2.90;;
23117;SDS011;11728;50.624;6.014;2023-04-19T18:35:15;13.23;;;9.70;;
23117;SDS011;11728;50.624;6.014;2023-04-19T18:40:36;9.40;;;3.17;;
23117;SDS011;11728;50.624;6.014;2023-04-19T18:45:59;9.50;;;3.47;;
23117;SDS011;11728;50.624;6.014;2023-04-19T18:51:25;6.05;;;3.20;;
23117;SDS011;11728;50.624;6.014;2023-04-19T18:56:46;7.28;;;3.25;;
23117;SDS011;11728;50.624;6.014;2023-04-19T19:02:07;4.90;;;3.05;;
23117;SDS011;11728;50.624;6.014;2023-04-19T19:07:28;9.98;;;3.40;;
23117;SDS011;11728;50.624;6.014;2023-04-19T19:12:49;5.75;;;2.67;;
23117;SDS011;11728;50.624;6.014;2023-04-19T19:18:10;11.18;;;3.25;;
23117;SDS011;11728;50.624;6.014;2023-04-19T19:23:31;6.75;;;3.25;;
23117;SDS011;11728;50.624;6.014;2023-04-19T19:28:52;4.82;;;2.53;;
23117;SDS011;11728;50.624;6.014;2023-04-19T19:34:13;7.15;;;3.05;;
23117;SDS011;11728;50.624;6.014;2023-04-19T19:39:34;6.75;;;2.65;;
23117;SDS011;11728;50.624;6.014;2023-04-19T19:44:55;4.38;;;2.95;;
23117;SDS011;11728;50.624;6.014;2023-04-19T19:50:16;5.47;;;2.70;;
23117;SDS011;11728;50.624;6.014;2023-04-19T19:55:37;6.38;;;2.63;;
23117;SDS011;11728;50.624;6.014;2023-04-19T20:00:58;6.15;;;3.08;;
23117;SDS011;11728;50.624;6.014;2023-04-19T20:06:18;8.43;;;2.80;;
23117;SDS011;11728;50.624;6.014;2023-04-19T20:11:39;6.20;;;2.97;;
23117;SDS011;11728;50.624;6.014;2023-04-19T20:17:00;4.68;;;3.00;;
23117;SDS011;11728;50.624;6.014;2023-04-19T20:22:22;5.35;;;2.42;;
23117;SDS011;11728;50.624;6.014;2023-04-19T20:27:43;4.40;;;2.70;;
23117;SDS011;11728;50.624;6.014;2023-04-19T20:33:03;7.93;;;2.70;;
23117;SDS011;11728;50.624;6.014;2023-04-19T20:38:24;6.13;;;2.72;;
23117;SDS011;11728;50.624;6.014;2023-04-19T20:43:48;9.55;;;3.20;;
23117;SDS011;11728;50.624;6.014;2023-04-19T20:49:08;4.72;;;2.85;;
23117;SDS011;11728;50.624;6.014;2023-04-19T20:54:29;7.72;;;2.53;;
23117;SDS011;11728;50.624;6.014;2023-04-19T20:59:50;5.85;;;3.00;;
23117;SDS011;11728;50.624;6.014;2023-04-19T21:05:11;5.97;;;3.20;;
23117;SDS011;11728;50.624;6.014;2023-04-19T21:10:32;6.68;;;3.80;;
23117;SDS011;11728;50.624;6.014;2023-04-19T21:15:53;9.73;;;3.90;;
23117;SDS011;11728;50.624;6.014;2023-04-19T21:21:13;8.82;;;3.75;;
23117;SDS011;11728;50.624;6.014;2023-04-19T21:26:34;6.75;;;2.92;;
23117;SDS011;11728;50.624;6.014;2023-04-19T21:31:55;12.57;;;3.60;;
23117;SDS011;11728;50.624;6.014;2023-04-19T21:37:16;6.30;;;3.25;;
23117;SDS011;11728;50.624;6.014;2023-04-19T21:42:39;7.95;;;2.97;;
23117;SDS011;11728;50.624;6.014;2023-04-19T21:47:59;5.45;;;2.95;;
23117;SDS011;11728;50.624;6.014;2023-04-19T21:53:20;6.22;;;3.00;;
23117;SDS011;11728;50.624;6.014;2023-04-19T21:58:41;3.80;;;2.65;;
23117;SDS011;11728;50.624;6.014;2023-04-19T22:04:01;4.85;;;3.05;;
23117;SDS011;11728;50.624;6.014;2023-04-19T22:09:23;9.75;;;3.20;;
23117;SDS011;11728;50.624;6.014;2023-04-19T22:14:43;6.38;;;3.17;;
23117;SDS011;11728;50.624;6.014;2023-04-19T22:20:04;7.47;;;2.92;;
23117;SDS011;11728;50.624;6.014;2023-04-19T22:25:28;9.18;;;3.35;;
23117;SDS011;11728;50.624;6.014;2023-04-19T22:30:49;6.25;;;3.25;;
23117;SDS011;11728;50.624;6.014;2023-04-19T22:36:10;7.05;;;3.00;;
23117;SDS011;11728;50.624;6.014;2023-04-19T22:41:31;9.30;;;3.22;;
23117;SDS011;11728;50.624;6.014;2023-04-19T22:46:52;7.30;;;3.00;;
23117;SDS011;11728;50.624;6.014;2023-04-19T22:52:13;7.53;;;3.47;;
23117;SDS011;11728;50.624;6.014;2023-04-19T22:57:35;8.55;;;3.65;;
23117;SDS011;11728;50.624;6.014;2023-04-19T23:02:55;11.32;;;3.47;;
23117;SDS011;11728;50.624;6.014;2023-04-19T23:08:17;7.88;;;3.95;;
23117;SDS011;11728;50.624;6.014;2023-04-19T23:13:39;7.55;;;3.38;;
23117;SDS011;11728;50.624;6.014;2023-04-19T23:19:00;8.43;;;3.95;;
23117;SDS011;11728;50.624;6.014;2023-04-19T23:24:21;9.55;;;4.10;;
23117;SDS011;11728;50.624;6.014;2023-04-19T23:29:42;7.07;;;3.97;;
23117;SDS011;11728;50.624;6.014;2023-04-19T23:35:02;13.70;;;4.15;;
23117;SDS011;11728;50.624;6.014;2023-04-19T23:40:24;12.55;;;4.55;;
23117;SDS011;11728;50.624;6.014;2023-04-19T23:45:44;9.77;;;4.60;;
23117;SDS011;11728;50.624;6.014;2023-04-19T23:51:05;8.60;;;4.03;;
23117;SDS011;11728;50.624;6.014;2023-04-19T23:56:26;5.95;;;3.38;;
